createdAt,value
2024-01-07T00:01:27.115Z,1.60
2024-01-07T00:03:53.965Z,1.65
2024-01-07T00:06:20.929Z,2.13
2024-01-07T00:08:48.921Z,1.83
2024-01-07T00:11:15.731Z,1.90
2024-01-07T00:13:42.491Z,2.00
2024-01-07T00:16:09.240Z,1.90
2024-01-07T00:18:36.091Z,1.70
2024-01-07T00:21:03.125Z,2.15
2024-01-07T00:23:29.919Z,2.08
2024-01-07T00:25:56.767Z,1.85
2024-01-07T00:28:23.477Z,1.90
2024-01-07T00:30:50.326Z,2.15
2024-01-07T00:33:17.178Z,2.08
2024-01-07T00:35:44.030Z,2.72
2024-01-07T00:38:10.752Z,2.92
2024-01-07T00:40:37.501Z,2.00
2024-01-07T00:43:04.359Z,2.10
2024-01-07T00:45:31.317Z,2.17
2024-01-07T00:47:58.167Z,1.77
2024-01-07T00:50:25.988Z,2.08
2024-01-07T00:52:52.885Z,1.80
2024-01-07T00:55:19.732Z,1.92
2024-01-07T00:57:46.489Z,1.90
2024-01-07T01:00:13.248Z,1.90
2024-01-07T01:02:40.057Z,1.80
2024-01-07T01:05:06.866Z,2.20
2024-01-07T01:07:33.721Z,1.85
2024-01-07T01:10:00.612Z,1.70
2024-01-07T01:12:27.406Z,2.17
2024-01-07T01:14:54.217Z,2.00
2024-01-07T01:17:20.955Z,1.83
2024-01-07T01:19:47.885Z,1.80
2024-01-07T01:22:14.664Z,1.95
2024-01-07T01:24:41.492Z,2.25
2024-01-07T01:27:08.262Z,1.92
2024-01-07T01:29:35.120Z,1.95
2024-01-07T01:32:01.888Z,1.92
2024-01-07T01:34:28.749Z,1.73
2024-01-07T01:36:55.562Z,1.80
2024-01-07T01:39:22.371Z,2.00
2024-01-07T01:41:49.180Z,1.83
2024-01-07T01:44:15.930Z,2.05
2024-01-07T01:46:42.712Z,2.20
2024-01-07T01:49:09.654Z,2.15
2024-01-07T01:51:36.566Z,1.90
2024-01-07T01:54:03.417Z,1.90
2024-01-07T01:56:30.225Z,1.88
2024-01-07T01:58:57.143Z,1.70
2024-01-07T02:01:24.494Z,1.70
2024-01-07T02:03:53.651Z,1.63
2024-01-07T02:06:20.599Z,1.60
2024-01-07T02:08:47.540Z,2.00
2024-01-07T02:11:14.583Z,2.30
2024-01-07T02:13:41.338Z,1.65
2024-01-07T02:16:08.102Z,2.10
2024-01-07T02:18:35.007Z,1.83
2024-01-07T02:21:01.730Z,1.70
2024-01-07T02:23:28.495Z,1.98
2024-01-07T02:25:55.247Z,2.10
2024-01-07T02:28:22.059Z,1.95
2024-01-07T02:30:48.920Z,1.80
2024-01-07T02:33:15.961Z,1.98
2024-01-07T02:35:42.798Z,1.65
2024-01-07T02:38:09.600Z,2.10
2024-01-07T02:40:36.422Z,1.80
2024-01-07T02:43:03.325Z,1.88
2024-01-07T02:45:30.187Z,2.05
2024-01-07T02:47:57.024Z,1.45
2024-01-07T02:50:24.721Z,2.10
2024-01-07T02:52:51.502Z,2.05
2024-01-07T02:55:18.292Z,2.00
2024-01-07T02:57:45.097Z,2.08
2024-01-07T03:00:11.947Z,2.33
2024-01-07T03:02:38.681Z,1.90
2024-01-07T03:05:05.570Z,2.50
2024-01-07T03:07:32.379Z,2.00
2024-01-07T03:09:59.234Z,1.63
2024-01-07T03:12:26.068Z,2.00
2024-01-07T03:14:52.778Z,1.80
2024-01-07T03:17:19.660Z,1.88
2024-01-07T03:19:46.895Z,1.90
2024-01-07T03:22:13.942Z,2.25
2024-01-07T03:24:40.671Z,2.20
2024-01-07T03:27:07.457Z,2.10
2024-01-07T03:29:34.266Z,1.80
2024-01-07T03:32:01.143Z,1.92
2024-01-07T03:34:28.084Z,2.13
2024-01-07T03:36:54.988Z,1.77
2024-01-07T03:39:21.705Z,1.35
2024-01-07T03:41:48.439Z,1.80
2024-01-07T03:44:15.725Z,1.67
2024-01-07T03:46:42.513Z,1.73
2024-01-07T03:49:09.328Z,1.50
2024-01-07T03:51:36.131Z,2.05
2024-01-07T03:54:02.880Z,1.10
2024-01-07T03:56:29.768Z,1.80
2024-01-07T03:58:56.497Z,1.60
2024-01-07T04:01:23.373Z,1.52
2024-01-07T04:03:50.397Z,1.73
2024-01-07T04:06:17.251Z,1.55
2024-01-07T04:08:44.179Z,1.50
2024-01-07T04:11:10.921Z,1.42
2024-01-07T04:13:37.614Z,1.45
2024-01-07T04:16:04.460Z,1.77
2024-01-07T04:18:31.343Z,1.90
2024-01-07T04:20:58.270Z,1.10
2024-01-07T04:23:25.041Z,1.40
2024-01-07T04:25:51.767Z,1.55
2024-01-07T04:28:18.510Z,1.27
2024-01-07T04:30:45.350Z,1.45
2024-01-07T04:33:12.212Z,1.70
2024-01-07T04:35:39.130Z,1.10
2024-01-07T04:38:05.875Z,1.67
2024-01-07T04:40:32.718Z,1.30
2024-01-07T04:42:59.639Z,1.20
2024-01-07T04:45:26.680Z,1.23
2024-01-07T04:47:53.564Z,1.60
2024-01-07T04:50:21.161Z,1.70
2024-01-07T04:52:48.036Z,1.85
2024-01-07T04:55:14.948Z,1.65
2024-01-07T04:57:41.758Z,1.52
2024-01-07T05:00:08.597Z,1.88
2024-01-07T05:02:35.383Z,2.40
2024-01-07T05:05:02.158Z,1.77
2024-01-07T05:07:28.963Z,1.90
2024-01-07T05:09:55.848Z,2.30
2024-01-07T05:12:22.715Z,1.92
2024-01-07T05:14:49.499Z,1.80
2024-01-07T05:17:16.206Z,1.77
2024-01-07T05:19:43.218Z,1.75
2024-01-07T05:22:10.102Z,1.63
2024-01-07T05:24:36.945Z,1.45
2024-01-07T05:27:03.809Z,1.88
2024-01-07T05:29:30.778Z,1.48
2024-01-07T05:31:57.649Z,1.60
2024-01-07T05:34:24.524Z,1.60
2024-01-07T05:36:51.362Z,1.65
2024-01-07T05:39:18.147Z,1.63
2024-01-07T05:41:44.928Z,1.48
2024-01-07T05:44:11.728Z,1.20
2024-01-07T05:46:38.524Z,1.60
2024-01-07T05:49:05.485Z,1.35
2024-01-07T05:51:32.299Z,1.48
2024-01-07T05:53:59.086Z,0.93
2024-01-07T05:56:25.878Z,1.50
2024-01-07T05:58:52.645Z,1.75
2024-01-07T06:01:19.849Z,1.60
2024-01-07T06:03:46.961Z,1.40
2024-01-07T06:06:13.776Z,1.33
2024-01-07T06:08:40.567Z,1.80
2024-01-07T06:11:07.312Z,1.10
2024-01-07T06:13:34.082Z,1.40
2024-01-07T06:16:00.848Z,1.60
2024-01-07T06:18:27.834Z,1.42
2024-01-07T06:20:54.700Z,2.30
2024-01-07T06:23:21.450Z,1.40
2024-01-07T06:25:48.200Z,1.70
2024-01-07T06:28:14.952Z,1.60
2024-01-07T06:30:41.810Z,1.50
2024-01-07T06:33:08.740Z,1.33
2024-01-07T06:35:35.634Z,1.65
2024-01-07T06:38:02.494Z,1.60
2024-01-07T06:40:29.344Z,1.20
2024-01-07T06:42:56.145Z,1.65
2024-01-07T06:45:23.041Z,1.77
2024-01-07T06:47:49.863Z,1.58
2024-01-07T06:50:17.680Z,1.20
2024-01-07T06:52:44.408Z,1.27
2024-01-07T06:55:11.283Z,1.20
2024-01-07T06:57:38.218Z,1.40
2024-01-07T07:00:05.777Z,1.60
2024-01-07T07:02:32.563Z,1.38
2024-01-07T07:04:59.436Z,1.50
2024-01-07T07:07:26.335Z,1.20
2024-01-07T07:09:53.664Z,1.30
2024-01-07T07:12:20.476Z,1.60
2024-01-07T07:14:48.001Z,1.38
2024-01-07T07:17:14.816Z,1.50
2024-01-07T07:19:45.504Z,1.30
2024-01-07T07:22:12.966Z,2.08
2024-01-07T07:24:39.820Z,1.80
2024-01-07T07:27:06.619Z,1.38
2024-01-07T07:29:33.328Z,1.40
2024-01-07T07:32:00.110Z,1.17
2024-01-07T07:34:27.061Z,1.35
2024-01-07T07:36:53.866Z,1.42
2024-01-07T07:39:21.196Z,2.20
2024-01-07T07:41:49.333Z,1.45
2024-01-07T07:44:16.084Z,2.33
2024-01-07T07:46:42.877Z,1.40
2024-01-07T07:49:09.741Z,1.70
2024-01-07T07:51:36.536Z,1.50
2024-01-07T07:54:04.536Z,1.60
2024-01-07T07:56:31.329Z,1.50
2024-01-07T07:58:58.102Z,1.40
2024-01-07T08:01:25.389Z,1.70
2024-01-07T08:03:52.246Z,1.85
2024-01-07T08:06:19.042Z,1.83
2024-01-07T08:08:46.255Z,1.70
2024-01-07T08:11:13.037Z,1.58
2024-01-07T08:13:39.890Z,1.58
2024-01-07T08:16:07.153Z,1.58
2024-01-07T08:18:34.273Z,1.52
2024-01-07T08:21:01.593Z,1.65
2024-01-07T08:23:28.789Z,1.63
2024-01-07T08:25:55.664Z,1.67
2024-01-07T08:28:22.661Z,1.58
2024-01-07T08:30:50.622Z,1.55
2024-01-07T08:33:17.655Z,1.70
2024-01-07T08:35:44.460Z,1.70
2024-01-07T08:38:11.329Z,1.70
2024-01-07T08:40:38.158Z,1.75
2024-01-07T08:43:04.888Z,1.55
2024-01-07T08:45:31.832Z,1.80
2024-01-07T08:47:58.699Z,2.20
2024-01-07T08:50:25.609Z,1.73
2024-01-07T08:52:52.385Z,1.40
2024-01-07T08:55:19.256Z,1.63
2024-01-07T08:57:50.161Z,1.65
2024-01-07T09:00:17.043Z,1.98
2024-01-07T09:02:44.372Z,1.42
2024-01-07T09:05:12.039Z,1.73
2024-01-07T09:07:38.856Z,1.67
2024-01-07T09:10:10.048Z,1.70
2024-01-07T09:12:37.385Z,1.67
2024-01-07T09:15:04.152Z,1.65
2024-01-07T09:17:31.023Z,1.67
2024-01-07T09:19:57.983Z,1.50
2024-01-07T09:22:24.795Z,1.67
2024-01-07T09:24:53.888Z,1.50
2024-01-07T09:27:20.856Z,1.60
2024-01-07T09:29:47.584Z,1.85
2024-01-07T09:32:14.383Z,1.50
2024-01-07T09:34:41.210Z,1.58
2024-01-07T09:37:08.505Z,1.20
2024-01-07T09:39:35.418Z,1.70
2024-01-07T09:42:02.176Z,1.30
2024-01-07T09:44:28.879Z,1.45
2024-01-07T09:46:55.659Z,1.55
2024-01-07T09:49:22.493Z,1.50
2024-01-07T09:51:49.382Z,1.50
2024-01-07T09:54:17.648Z,1.50
2024-01-07T09:56:44.598Z,1.23
2024-01-07T09:59:11.363Z,1.58
2024-01-07T10:01:38.229Z,1.27
2024-01-07T10:04:05.180Z,1.23
2024-01-07T10:06:32.069Z,1.80
2024-01-07T10:08:58.945Z,1.90
2024-01-07T10:11:25.733Z,1.40
2024-01-07T10:13:53.216Z,1.52
2024-01-07T10:16:20.120Z,1.50
2024-01-07T10:18:47.052Z,1.67
2024-01-07T10:21:14.609Z,1.58
2024-01-07T10:23:41.402Z,1.45
2024-01-07T10:26:15.541Z,1.80
2024-01-07T10:28:50.177Z,1.17
2024-01-07T10:31:17.021Z,1.65
2024-01-07T10:33:43.946Z,1.30
2024-01-07T10:36:10.725Z,1.25
2024-01-07T10:38:38.133Z,1.40
2024-01-07T10:41:05.587Z,1.50
2024-01-07T10:43:32.480Z,1.30
2024-01-07T10:45:59.252Z,1.60
2024-01-07T10:48:26.284Z,1.40
2024-01-07T10:50:53.264Z,1.25
2024-01-07T10:53:20.258Z,1.38
2024-01-07T10:55:47.457Z,1.33
2024-01-07T10:58:14.291Z,1.83
2024-01-07T11:00:41.165Z,1.40
2024-01-07T11:03:08.069Z,1.45
2024-01-07T11:05:34.850Z,1.13
2024-01-07T11:08:01.664Z,1.40
2024-01-07T11:10:35.114Z,1.50
2024-01-07T11:13:05.572Z,1.55
2024-01-07T11:15:32.338Z,1.40
2024-01-07T11:17:59.231Z,1.40
2024-01-07T11:20:28.075Z,1.80
2024-01-07T11:22:54.954Z,1.45
2024-01-07T11:25:24.787Z,1.65
2024-01-07T11:27:51.766Z,1.58
2024-01-07T11:30:18.605Z,1.35
2024-01-07T11:32:45.385Z,2.00
2024-01-07T11:35:12.303Z,1.65
2024-01-07T11:37:39.243Z,2.05
2024-01-07T11:40:05.977Z,1.40
2024-01-07T11:42:33.213Z,1.67
2024-01-07T11:45:00.133Z,1.73
2024-01-07T11:47:30.296Z,1.60
2024-01-07T11:49:57.282Z,1.70
2024-01-07T11:52:24.327Z,1.77
2024-01-07T11:54:51.283Z,1.58
2024-01-07T11:57:18.624Z,1.63
2024-01-07T11:59:45.810Z,2.03
2024-01-07T12:02:12.945Z,1.90
2024-01-07T12:04:39.914Z,2.10
2024-01-07T12:07:06.732Z,1.70
2024-01-07T12:09:33.795Z,1.83
2024-01-07T12:12:00.600Z,1.80
2024-01-07T12:14:27.368Z,2.17
2024-01-07T12:16:54.080Z,1.70
2024-01-07T12:19:23.794Z,1.75
2024-01-07T12:21:53.054Z,1.70
2024-01-07T12:24:20.300Z,1.58
2024-01-07T12:26:48.989Z,1.70
2024-01-07T12:29:15.940Z,1.92
2024-01-07T12:31:43.388Z,1.67
2024-01-07T12:34:10.342Z,1.90
2024-01-07T12:36:37.171Z,1.83
2024-01-07T12:39:04.100Z,2.10
2024-01-07T12:41:30.834Z,1.65
2024-01-07T12:43:57.698Z,2.00
2024-01-07T12:46:24.513Z,1.60
2024-01-07T12:48:51.605Z,1.80
2024-01-07T12:51:20.754Z,2.00
2024-01-07T12:53:49.460Z,2.13
2024-01-07T12:56:16.217Z,2.53
2024-01-07T12:58:43.012Z,1.85
2024-01-07T13:01:09.791Z,2.40
2024-01-07T13:03:36.709Z,2.67
2024-01-07T13:06:04.620Z,2.00
2024-01-07T13:08:31.586Z,2.00
2024-01-07T13:10:59.677Z,2.50
2024-01-07T13:13:26.655Z,2.08
2024-01-07T13:15:53.541Z,2.00
2024-01-07T13:18:21.519Z,1.65
2024-01-07T13:20:48.378Z,1.65
2024-01-07T13:23:15.120Z,1.67
2024-01-07T13:25:41.850Z,2.05
2024-01-07T13:28:11.948Z,1.90
2024-01-07T13:30:39.636Z,1.70
2024-01-07T13:33:07.890Z,1.80
2024-01-07T13:35:34.909Z,1.80
2024-01-07T13:38:03.041Z,1.70
2024-01-07T13:40:29.838Z,1.52
2024-01-07T13:42:56.748Z,1.88
2024-01-07T13:45:24.741Z,1.85
2024-01-07T13:47:51.882Z,2.15
2024-01-07T13:50:19.047Z,2.00
2024-01-07T13:52:45.823Z,1.92
2024-01-07T13:55:12.919Z,1.75
2024-01-07T13:57:40.113Z,1.83
2024-01-07T14:00:10.301Z,1.70
2024-01-07T14:02:38.611Z,1.60
2024-01-07T14:05:07.193Z,1.50
2024-01-07T14:07:37.239Z,1.60
2024-01-07T14:10:05.001Z,1.40
2024-01-07T14:12:32.215Z,1.30
2024-01-07T14:15:00.068Z,1.80
2024-01-07T14:17:26.910Z,2.35
2024-01-07T14:19:54.350Z,1.73
2024-01-07T14:22:21.714Z,2.20
2024-01-07T14:24:49.960Z,2.00
2024-01-07T14:27:16.799Z,2.10
2024-01-07T14:29:43.596Z,1.48
2024-01-07T14:32:10.580Z,1.80
2024-01-07T14:34:37.408Z,1.92
2024-01-07T14:37:04.241Z,1.75
2024-01-07T14:39:31.159Z,1.60
2024-01-07T14:41:57.943Z,1.60
2024-01-07T14:44:36.288Z,2.28
2024-01-07T14:47:07.750Z,1.42
2024-01-07T14:49:34.584Z,1.70
2024-01-07T14:52:01.430Z,1.83
2024-01-07T14:54:28.147Z,1.90
2024-01-07T14:56:54.950Z,1.80
2024-01-07T14:59:21.649Z,1.65
2024-01-07T15:01:48.532Z,1.77
2024-01-07T15:04:15.590Z,1.98
2024-01-07T15:06:42.455Z,1.75
2024-01-07T15:09:09.579Z,1.88
2024-01-07T15:11:36.419Z,1.77
2024-01-07T15:14:07.801Z,1.70
2024-01-07T15:16:34.652Z,1.60
2024-01-07T15:19:01.464Z,1.60
2024-01-07T15:21:28.287Z,2.40
2024-01-07T15:23:54.990Z,2.20
2024-01-07T15:26:22.087Z,2.80
2024-01-07T15:28:49.029Z,1.67
2024-01-07T15:31:15.935Z,2.40
2024-01-07T15:33:42.777Z,2.20
2024-01-07T15:36:09.612Z,1.95
2024-01-07T15:38:36.767Z,2.20
2024-01-07T15:41:03.727Z,2.22
2024-01-07T15:43:30.513Z,2.72
2024-01-07T15:45:57.297Z,2.72
2024-01-07T15:48:25.756Z,2.45
2024-01-07T15:50:52.646Z,2.30
2024-01-07T15:53:19.367Z,2.00
2024-01-07T15:55:47.125Z,2.28
2024-01-07T15:58:13.937Z,1.70
2024-01-07T16:00:40.931Z,1.95
2024-01-07T16:03:07.897Z,1.88
2024-01-07T16:05:35.952Z,2.00
2024-01-07T16:08:02.936Z,1.75
2024-01-07T16:10:29.764Z,1.95
2024-01-07T16:12:56.651Z,1.70
2024-01-07T16:15:24.207Z,1.67
2024-01-07T16:17:51.123Z,2.85
2024-01-07T16:20:18.048Z,1.95
2024-01-07T16:22:44.868Z,2.00
2024-01-07T16:25:11.830Z,2.13
2024-01-07T16:27:38.590Z,2.00
2024-01-07T16:30:05.696Z,2.13
2024-01-07T16:32:32.521Z,1.48
2024-01-07T16:34:59.656Z,2.00
2024-01-07T16:37:26.671Z,2.33
2024-01-07T16:39:53.484Z,2.70
2024-01-07T16:42:20.378Z,2.67
2024-01-07T16:44:47.332Z,2.28
2024-01-07T16:47:14.896Z,2.03
2024-01-07T16:50:20.089Z,2.00
2024-01-07T16:52:29.135Z,2.20
2024-01-07T16:54:56.048Z,2.58
2024-01-07T16:57:22.812Z,2.45
2024-01-07T16:59:51.092Z,2.25
2024-01-07T17:02:17.972Z,2.53
2024-01-07T17:04:45.039Z,5.88
2024-01-07T17:07:12.853Z,4.10
2024-01-07T17:09:39.655Z,3.78
2024-01-07T17:12:06.452Z,6.70
2024-01-07T17:14:33.146Z,5.05
2024-01-07T17:16:59.980Z,2.80
2024-01-07T17:19:26.786Z,2.30
2024-01-07T17:21:53.933Z,2.22
2024-01-07T17:24:20.717Z,2.55
2024-01-07T17:26:47.456Z,2.60
2024-01-07T17:29:14.252Z,2.67
2024-01-07T17:31:41.100Z,2.75
2024-01-07T17:34:08.191Z,2.83
2024-01-07T17:36:35.835Z,2.53
2024-01-07T17:39:05.030Z,4.05
2024-01-07T17:41:33.474Z,3.95
2024-01-07T17:44:00.368Z,2.80
2024-01-07T17:46:27.299Z,2.90
2024-01-07T17:48:54.085Z,3.17
2024-01-07T17:51:21.284Z,3.38
2024-01-07T17:53:48.136Z,3.28
2024-01-07T17:56:15.938Z,2.80
2024-01-07T17:58:42.789Z,3.10
2024-01-07T18:01:10.291Z,2.80
2024-01-07T18:03:37.196Z,3.33
2024-01-07T18:06:05.097Z,3.03
2024-01-07T18:08:38.604Z,3.10
2024-01-07T18:11:09.130Z,3.35
2024-01-07T18:13:35.853Z,2.70
2024-01-07T18:16:02.700Z,3.25
2024-01-07T18:18:29.736Z,2.97
2024-01-07T18:20:57.033Z,2.67
2024-01-07T18:23:23.901Z,3.08
2024-01-07T18:25:50.805Z,3.70
2024-01-07T18:28:17.595Z,2.88
2024-01-07T18:30:44.455Z,3.30
2024-01-07T18:33:11.958Z,3.10
2024-01-07T18:35:39.078Z,3.85
2024-01-07T18:38:06.037Z,3.45
2024-01-07T18:40:33.130Z,2.65
2024-01-07T18:43:02.110Z,3.45
2024-01-07T18:45:29.890Z,3.05
2024-01-07T18:47:56.703Z,3.30
2024-01-07T18:50:23.670Z,2.80
2024-01-07T18:52:50.633Z,3.13
2024-01-07T18:55:18.332Z,3.17
2024-01-07T18:57:47.073Z,2.97
2024-01-07T19:00:13.981Z,3.20
2024-01-07T19:02:40.833Z,2.95
2024-01-07T19:05:08.633Z,2.92
2024-01-07T19:07:37.086Z,2.47
2024-01-07T19:10:03.855Z,3.00
2024-01-07T19:12:30.633Z,2.67
2024-01-07T19:14:57.376Z,2.85
2024-01-07T19:17:24.362Z,3.60
2024-01-07T19:19:51.476Z,3.20
2024-01-07T19:22:18.661Z,2.60
2024-01-07T19:24:45.397Z,2.58
2024-01-07T19:27:12.156Z,2.30
2024-01-07T19:29:38.961Z,2.45
2024-01-07T19:32:06.498Z,2.40
2024-01-07T19:34:36.191Z,2.30
2024-01-07T19:37:03.024Z,2.20
2024-01-07T19:39:29.759Z,2.60
2024-01-07T19:41:56.580Z,2.50
2024-01-07T19:44:23.504Z,2.40
2024-01-07T19:46:50.456Z,2.97
2024-01-07T19:49:17.404Z,2.90
2024-01-07T19:51:44.211Z,2.35
2024-01-07T19:54:11.067Z,3.03
2024-01-07T19:56:37.855Z,2.63
2024-01-07T19:59:04.799Z,2.50
2024-01-07T20:01:31.675Z,2.30
2024-01-07T20:03:58.466Z,2.30
2024-01-07T20:06:25.620Z,2.28
2024-01-07T20:08:53.661Z,2.55
2024-01-07T20:11:20.489Z,2.55
2024-01-07T20:13:47.427Z,2.47
2024-01-07T20:16:14.403Z,2.10
2024-01-07T20:18:41.273Z,2.50
2024-01-07T20:21:09.322Z,2.15
2024-01-07T20:23:36.160Z,2.30
2024-01-07T20:26:03.976Z,2.20
2024-01-07T20:28:30.828Z,2.78
2024-01-07T20:30:57.857Z,2.80
2024-01-07T20:33:24.826Z,2.70
2024-01-07T20:35:53.515Z,3.05
2024-01-07T20:38:23.316Z,2.50
2024-01-07T20:40:50.124Z,2.45
2024-01-07T20:43:16.872Z,2.65
2024-01-07T20:45:43.681Z,2.80
2024-01-07T20:48:10.562Z,2.45
2024-01-07T20:50:38.856Z,2.80
2024-01-07T20:53:08.811Z,2.60
2024-01-07T20:55:35.634Z,4.00
2024-01-07T20:58:04.094Z,3.65
2024-01-07T21:00:30.964Z,3.03
2024-01-07T21:02:58.771Z,2.85
2024-01-07T21:05:25.653Z,2.40
2024-01-07T21:07:52.527Z,3.10
2024-01-07T21:10:22.238Z,2.75
2024-01-07T21:12:49.033Z,3.13
2024-01-07T21:15:15.795Z,2.88
2024-01-07T21:17:43.617Z,2.47
2024-01-07T21:20:10.694Z,2.97
2024-01-07T21:22:37.637Z,2.58
2024-01-07T21:25:04.410Z,3.00
2024-01-07T21:27:31.201Z,2.38
2024-01-07T21:29:57.980Z,2.50
2024-01-07T21:32:29.497Z,2.38
2024-01-07T21:34:56.424Z,2.90
2024-01-07T21:37:23.196Z,2.72
2024-01-07T21:39:50.064Z,2.85
2024-01-07T21:42:16.933Z,3.53
2024-01-07T21:44:43.785Z,3.20
2024-01-07T21:47:10.689Z,3.40
2024-01-07T21:49:37.881Z,3.45
2024-01-07T21:52:06.563Z,3.17
2024-01-07T21:54:33.360Z,3.80
2024-01-07T21:57:00.165Z,3.47
2024-01-07T21:59:27.088Z,4.40
2024-01-07T22:01:53.960Z,3.92
2024-01-07T22:04:20.788Z,3.28
2024-01-07T22:06:47.523Z,3.35
2024-01-07T22:09:14.255Z,3.08
2024-01-07T22:11:43.390Z,3.10
2024-01-07T22:14:10.243Z,2.75
2024-01-07T22:16:37.414Z,2.30
2024-01-07T22:19:04.359Z,2.55
2024-01-07T22:21:32.182Z,2.45
2024-01-07T22:23:59.159Z,3.03
2024-01-07T22:26:25.983Z,2.47
2024-01-07T22:28:52.825Z,2.83
2024-01-07T22:31:20.010Z,2.78
2024-01-07T22:33:50.007Z,2.58
2024-01-07T22:36:16.812Z,2.45
2024-01-07T22:38:43.683Z,2.90
2024-01-07T22:41:10.510Z,2.47
2024-01-07T22:43:37.258Z,2.35
2024-01-07T22:46:04.213Z,2.35
2024-01-07T22:48:33.247Z,2.08
2024-01-07T22:51:00.221Z,2.33
2024-01-07T22:53:27.614Z,3.15
2024-01-07T22:55:54.848Z,1.90
2024-01-07T22:58:21.601Z,2.40
2024-01-07T23:00:49.492Z,2.10
2024-01-07T23:03:16.500Z,2.38
2024-01-07T23:05:43.398Z,2.80
2024-01-07T23:08:10.322Z,2.70
2024-01-07T23:10:37.153Z,2.33
2024-01-07T23:13:04.278Z,2.75
2024-01-07T23:15:31.069Z,2.47
2024-01-07T23:17:57.906Z,2.08
2024-01-07T23:20:25.348Z,2.45
2024-01-07T23:22:52.271Z,2.40
2024-01-07T23:25:19.043Z,2.38
2024-01-07T23:27:45.884Z,3.30
2024-01-07T23:30:12.805Z,2.28
2024-01-07T23:32:39.760Z,2.00
2024-01-07T23:35:06.791Z,2.78
2024-01-07T23:37:33.652Z,2.22
2024-01-07T23:40:00.327Z,2.45
2024-01-07T23:42:27.110Z,2.35
2024-01-07T23:44:53.796Z,1.75
2024-01-07T23:47:20.748Z,2.55
2024-01-07T23:49:47.507Z,2.28
2024-01-07T23:52:14.305Z,2.45
2024-01-07T23:54:41.038Z,2.10
2024-01-07T23:57:07.849Z,2.13
2024-01-07T23:59:34.615Z,2.45
